Flight Track Log - Related Links

Times and Time Zones

All times are in EDT time to prevent confusion due to time zone crossing. See the SWA4195 flight status page for this flight to view local times or setup timezone preferences in your user account.

Time Position Orientation Groundspeed Altitude Reporting Facility
EDT Latitude Longitude Course Direction KTS MPH feet Rate Location/Type
Sun 05:51:37 PM 30.4594 -81.7311 227° Southwest 224 258 2,300  Level Jacksonville Center
Sun 05:52:38 PM 30.4069 -81.6786 139° Southeast 291 335 4,400 1,946 Climbing Jacksonville Center
Sun 05:52:51 PM 30.3964 -81.6667 136° Southeast 299 344 4,700 3,123 Climbing Jacksonville Center
Sun 05:53:51 PM 30.3456 -81.5953 130° Southeast 320 368 8,200 3,076 Climbing Jacksonville Center
Sun 05:54:50 PM 30.2842 -81.5167 132° Southeast 331 381 10,800 2,773 Climbing Jacksonville Center
Sun 05:55:50 PM 30.2164 -81.4239 130° Southeast 351 404 13,700 2,579 Climbing Jacksonville Center
Sun 05:56:51 PM 30.1378 -81.3242 132° Southeast 387 445 16,000 1,091 Climbing Jacksonville Center
Sun 05:57:51 PM 30.0592 -81.2197 131° Southeast 417 480 15,900 250 Descending Jacksonville Center
Sun 05:58:51 PM 29.9764 -81.1158 133° Southeast 436 502 16,500 1,950 Climbing Jacksonville Center
Sun 05:59:51 PM 29.8978 -81.0142 132° Southeast 436 502 19,800 3,150 Climbing Jacksonville Center
Sun 06:00:51 PM 29.8169 -80.9128 133° Southeast 436 502 22,800 2,199 Climbing Jacksonville Center
Sun 06:02:32 PM 29.6250 -80.8131 156° South 419 482 25,700 1,714 Climbing Miami Center
Sun 06:03:32 PM 29.5053 -80.7636 160° South 442 509 27,400 1,500 Climbing Miami Center
Sun 06:04:32 PM 29.3981 -80.7217 161° South 452 520 28,700 1,550 Climbing Miami Center
Sun 06:05:32 PM 29.2722 -80.6744 162° South 467 537 30,500 1,950 Climbing Miami Center
Sun 06:06:32 PM 29.1483 -80.6225 160° South 473 544 32,600 1,800 Climbing Miami Center
Sun 06:07:32 PM 29.0267 -80.5733 161° South 473 544 34,100 1,550 Climbing Miami Center
Sun 06:08:32 PM 28.9047 -80.5242 161° South 473 544 35,700 950 Climbing Miami Center
Sun 06:09:32 PM 28.7686 -80.4628 158° South 464 534 36,000 150 Climbing Miami Center
Sun 06:10:32 PM 28.6431 -80.4019 157° South 485 558 36,000  Level Miami Center
Sun 06:11:32 PM 28.5172 -80.3414 157° South 491 565 36,000  Level Miami Center
Sun 06:12:32 PM 28.4017 -80.2881 158° South 491 565 36,000  Level Miami Center
Sun 06:13:32 PM 28.2758 -80.2278 157° South 496 571 36,000  Level Miami Center
Sun 06:14:32 PM 28.1353 -80.1625 158° South 491 565 36,000  Level Miami Center
Sun 06:15:32 PM 28.0094 -80.1022 157° South 491 565 36,000  Level Miami Center
Sun 06:16:32 PM 27.8856 -80.0422 157° South 491 565 36,000 -1,300 Level Miami Center
Sun 06:17:32 PM 27.7656 -79.9875 158° South 501 577 33,400 -2,700 Descending Miami Center
Sun 06:18:32 PM 27.6417 -79.9300 158° South 501 577 30,600 -2,750 Descending Miami Center
Sun 06:19:32 PM 27.5092 -79.8681 157° South 479 551 27,900 -2,150 Descending Miami Center
Sun 06:20:32 PM 27.3892 -79.8111 157° South 468 539 26,300 -1,600 Descending Miami Center
Sun 06:21:32 PM 27.2711 -79.7636 160° South 462 532 24,700 -1,714 Descending Miami Center
Sun 06:22:31 PM 27.1800 -79.7333 164° South 446 513 22,900 -2,150 Descending Miami Center
Sun 06:23:32 PM 27.0533 -79.7000 167° South 428 493 20,400 -2,380 Descending Miami Center
Sun 06:24:32 PM 26.9350 -79.6619 164° South 406 467 18,100 -2,150 Descending Miami Center
Sun 06:25:32 PM 26.8308 -79.6456 172° South 392 451 16,100 -1,650 Descending Miami Center
Sun 06:26:32 PM 26.7444 -79.6900 205° Southwest 357 411 14,800 -1,850 Descending Miami Center
Sun 06:27:32 PM 26.6683 -79.7253 203° Southwest 339 390 12,400 -2,286 Descending Miami Center
Sun 06:27:56 PM 26.6283 -79.7431 202° Southwest 324 373 11,600 -1,900 Descending Miami Center
Sun 06:28:32 PM 26.5778 -79.7672 203° Southwest 334 384 10,500 -1,375 Descending Miami Center
Sun 06:29:32 PM 26.5103 -79.7983 202° Southwest 311 358 9,400 -1,345 Descending Miami Center
Sun 06:30:28 PM 26.4364 -79.8450 209° Southwest 274 315 7,900 -1,500 Descending Miami Center
Sun 06:30:32 PM 26.4342 -79.8450 180° South 292 336 7,900 -188 Level Miami Center
Sun 06:31:32 PM 26.3792 -79.8761 207° Southwest 263 303 7,700 -900 Descending Miami Center
Sun 06:32:32 PM 26.3158 -79.9139 208° Southwest 238 274 6,100 -1,550 Descending Miami Center
Sun 06:33:32 PM 26.2753 -79.9569 224° Southwest 233 268 4,600 -1,050 Descending Miami Center
Sun 06:34:32 PM 26.2103 -79.9622 184° South 206 237 4,000 -590 Descending Miami Center
Sun 06:34:33 PM 26.2083 -79.9619 173° South 235 270 4,000  Level Miami Center
Sun 06:35:32 PM 26.1739 -79.9125 128° Southeast 168 193 4,000  Level Miami Center
Sun 06:35:34 PM 26.1717 -79.9125 180° South 221 254 4,000  Level Miami Center
Sun 06:36:29 PM 26.1667 -79.8544 95° East 215 247 4,000 -103 Level Miami Center
Sun 06:36:32 PM 26.1689 -79.8475 70° East 168 193 3,900  Descending Miami Center
Sun 06:37:30 PM 26.1258 -79.8094 142° Southeast 198 228 4,000  Climbing Miami Center
Sun 06:37:32 PM 26.1300 -79.8072 26° Northeast 179 206 3,900 -290 Descending Miami Center
Sun 06:38:32 PM 26.0775 -79.8153 188° South 193 222 3,700 -446 Descending Miami Center
Sun 06:39:33 PM 26.0722 -79.8683 264° West 173 199 3,000 -344 Descending Miami Center
Sun 06:40:34 PM 26.0714 -79.9192 269° West 168 193 3,000 -98 Level Miami Center
Sun 06:41:35 PM 26.0722 -79.9747 271° West 165 190 2,800 -541 Descending Miami Center
Sun 06:42:36 PM 26.0753 -80.0281 274° West 165 190 1,900 -836 Descending Miami Center
Sun 06:43:37 PM 26.0722 -80.0764 266° West 156 180 1,100 -689 Descending Miami Center
Sun 06:44:38 PM 26.0733 -80.1158 272° West 126 145 500 -590 Descending Miami Center
Sun 06:46:00 PM 26.0726 -80.1527 273° West  Level Estimated
Sun 06:53:00 PM 26.0667 -80.1500 103° East  Level FlightAware Approximate

Login

Don't have an account? Register now (free) for customized features, flight alerts, and more!